createdAt,value
2024-02-22T00:00:55.715Z,100209.72
2024-02-22T00:01:57.474Z,100201.66
2024-02-22T00:02:59.086Z,100208.75
2024-02-22T00:04:00.555Z,100205.13
2024-02-22T00:05:02.221Z,100193.44
2024-02-22T00:06:04.962Z,100207.84
2024-02-22T00:07:06.873Z,100201.56
2024-02-22T00:08:08.393Z,100198.84
2024-02-22T00:09:10.059Z,100196.06
2024-02-22T00:10:13.516Z,100194.22
2024-02-22T00:11:16.243Z,100196.00
2024-02-22T00:12:17.933Z,100188.78
2024-02-22T00:13:19.474Z,100183.34
2024-02-22T00:14:21.029Z,100182.34
2024-02-22T00:15:22.645Z,100179.66
2024-02-22T00:16:24.166Z,100185.03
2024-02-22T00:17:25.900Z,100179.59
2024-02-22T00:18:27.458Z,100180.44
2024-02-22T00:19:29.716Z,100175.97
2024-02-22T00:20:31.918Z,100171.50
2024-02-22T00:21:33.419Z,100163.22
2024-02-22T00:22:34.943Z,100157.78
2024-02-22T00:23:36.514Z,100148.81
2024-02-22T00:24:38.116Z,100146.19
2024-02-22T00:25:39.851Z,100152.44
2024-02-22T00:26:41.404Z,100145.13
2024-02-22T00:27:43.080Z,100141.56
2024-02-22T00:28:44.593Z,100134.41
2024-02-22T00:29:46.137Z,100132.59
2024-02-22T00:30:47.575Z,100132.53
2024-02-22T00:31:49.470Z,100125.28
2024-02-22T00:32:50.995Z,100127.03
2024-02-22T00:33:52.506Z,100118.88
2024-02-22T00:34:54.087Z,100110.72
2024-02-22T00:35:55.714Z,100109.75
2024-02-22T00:36:57.198Z,100100.72
2024-02-22T00:37:58.783Z,100108.91
2024-02-22T00:39:00.421Z,100095.34
2024-02-22T00:40:05.033Z,100101.63
2024-02-22T00:41:07.127Z,100099.72
2024-02-22T00:42:08.602Z,100101.56
2024-02-22T00:43:10.073Z,100092.56
2024-02-22T00:44:11.637Z,100092.56
2024-02-22T00:45:14.019Z,100088.88
2024-02-22T00:46:15.520Z,100078.91
2024-02-22T00:47:17.089Z,100087.94
2024-02-22T00:48:18.840Z,100088.84
2024-02-22T00:49:20.551Z,100085.22
2024-02-22T00:50:22.169Z,100080.63
2024-02-22T00:51:23.691Z,100077.78
2024-02-22T00:52:25.243Z,100083.22
2024-02-22T00:53:26.690Z,100076.06
2024-02-22T00:54:28.148Z,100073.31
2024-02-22T00:55:29.596Z,100076.13
2024-02-22T00:56:31.066Z,100077.84
2024-02-22T00:57:32.503Z,100072.34
2024-02-22T00:58:34.063Z,100067.00
2024-02-22T00:59:35.643Z,100070.69
2024-02-22T01:00:37.476Z,100069.84
2024-02-22T01:01:39.016Z,100050.91
2024-02-22T01:02:40.532Z,100064.44
2024-02-22T01:03:42.199Z,100059.97
2024-02-22T01:04:46.709Z,100054.63
2024-02-22T01:05:48.355Z,100052.75
2024-02-22T01:06:49.974Z,100052.69
2024-02-22T01:07:51.509Z,100046.19
2024-02-22T01:08:53.037Z,100043.63
2024-02-22T01:09:54.538Z,100045.34
2024-02-22T01:10:56.088Z,100036.34
2024-02-22T01:11:57.702Z,100037.22
2024-02-22T01:12:59.193Z,100036.28
2024-02-22T01:14:00.744Z,100035.41
2024-02-22T01:15:02.835Z,100030.94
2024-02-22T01:16:04.374Z,100028.22
2024-02-22T01:17:06.065Z,100027.34
2024-02-22T01:18:08.052Z,100013.84
2024-02-22T01:19:09.650Z,100021.97
2024-02-22T01:20:12.330Z,100012.97
2024-02-22T01:21:14.249Z,100015.56
2024-02-22T01:22:15.768Z,100012.91
2024-02-22T01:23:17.457Z,100012.69
2024-02-22T01:24:18.956Z,100005.44
2024-02-22T01:25:20.398Z,100008.06
2024-02-22T01:26:22.519Z,100012.44
2024-02-22T01:27:24.187Z,100007.91
2024-02-22T01:28:25.704Z,99995.25
2024-02-22T01:29:28.086Z,100007.81
2024-02-22T01:30:29.524Z,100003.34
2024-02-22T01:31:31.975Z,99990.63
2024-02-22T01:32:33.589Z,99993.34
2024-02-22T01:33:35.517Z,99994.25
2024-02-22T01:34:37.154Z,99993.44
2024-02-22T01:35:38.651Z,99990.63
2024-02-22T01:36:40.436Z,99981.66
2024-02-22T01:37:42.737Z,99978.94
2024-02-22T01:38:44.632Z,99980.50
2024-02-22T01:39:47.145Z,99979.66
2024-02-22T01:40:48.689Z,99980.66
2024-02-22T01:41:50.171Z,99978.78
2024-02-22T01:42:51.700Z,99967.91
2024-02-22T01:43:53.943Z,99970.53
2024-02-22T01:44:55.414Z,99963.38
2024-02-22T01:45:58.471Z,99958.81
2024-02-22T01:47:00.234Z,99956.22
2024-02-22T01:48:02.080Z,99952.56
2024-02-22T01:49:05.144Z,99951.50
2024-02-22T01:50:09.310Z,99943.38
2024-02-22T01:51:11.537Z,99956.91
2024-02-22T01:52:12.944Z,99945.25
2024-02-22T01:53:14.611Z,99945.28
2024-02-22T01:54:16.155Z,99935.25
2024-02-22T01:55:18.926Z,99938.81
2024-02-22T01:56:21.645Z,99930.56
2024-02-22T01:57:23.235Z,99933.09
2024-02-22T01:58:25.977Z,99917.75
2024-02-22T01:59:27.692Z,99913.03
2024-02-22T02:00:29.744Z,99910.38
2024-02-22T02:01:32.293Z,99909.47
2024-02-22T02:02:34.260Z,99912.22
2024-02-22T02:03:35.929Z,99908.66
2024-02-22T02:04:38.945Z,99904.25
2024-02-22T02:05:40.525Z,99903.25
2024-02-22T02:06:42.069Z,99901.34
2024-02-22T02:07:44.010Z,99892.41
2024-02-22T02:08:45.679Z,99888.75
2024-02-22T02:09:47.168Z,99897.00
2024-02-22T02:10:48.966Z,99888.88
2024-02-22T02:11:50.654Z,99888.00
2024-02-22T02:12:52.243Z,99883.59
2024-02-22T02:13:53.826Z,99883.38
2024-02-22T02:14:57.588Z,99881.69
2024-02-22T02:15:59.432Z,99879.78
2024-02-22T02:17:00.993Z,99878.91
2024-02-22T02:18:02.555Z,99876.06
2024-02-22T02:19:10.099Z,99871.47
2024-02-22T02:20:11.959Z,99876.06
2024-02-22T02:21:40.881Z,99865.22
2024-02-22T02:23:05.062Z,99873.28
2024-02-22T02:24:14.617Z,99865.13
2024-02-22T02:25:16.295Z,99863.22
2024-02-22T02:26:19.043Z,99864.22
2024-02-22T02:27:20.653Z,99864.13
2024-02-22T02:28:22.193Z,99861.31
2024-02-22T02:29:25.593Z,99854.75
2024-02-22T02:30:27.063Z,99849.31
2024-02-22T02:31:31.311Z,99856.66
2024-02-22T02:32:33.011Z,99848.53
2024-02-22T02:33:35.551Z,99841.44
2024-02-22T02:34:37.061Z,99839.56
2024-02-22T02:35:39.265Z,99836.84
2024-02-22T02:36:40.855Z,99831.47
2024-02-22T02:37:42.460Z,99835.09
2024-02-22T02:38:43.940Z,99830.59
2024-02-22T02:39:45.395Z,99832.38
2024-02-22T02:40:46.924Z,99830.50
2024-02-22T02:41:48.472Z,99812.31
2024-02-22T02:42:49.985Z,99811.34
2024-02-22T02:43:51.451Z,99812.25
2024-02-22T02:44:52.956Z,99807.75
2024-02-22T02:45:54.440Z,99802.41
2024-02-22T02:46:55.990Z,99808.66
2024-02-22T02:47:57.597Z,99796.00
2024-02-22T02:48:59.207Z,99795.06
2024-02-22T02:50:00.985Z,99793.13
2024-02-22T02:51:05.052Z,99799.94
2024-02-22T02:52:06.549Z,99780.81
2024-02-22T02:53:08.014Z,99779.78
2024-02-22T02:54:09.614Z,99776.13
2024-02-22T02:55:13.740Z,99782.66
2024-02-22T02:56:15.357Z,99784.41
2024-02-22T02:57:16.890Z,99763.53
2024-02-22T02:58:18.337Z,99770.59
2024-02-22T02:59:19.930Z,99771.50
2024-02-22T03:00:21.565Z,99762.44
2024-02-22T03:01:23.049Z,99762.34
2024-02-22T03:02:24.683Z,99764.81
2024-02-22T03:03:26.245Z,99765.72
2024-02-22T03:04:27.772Z,99761.72
2024-02-22T03:05:29.614Z,99762.56
2024-02-22T03:06:31.225Z,99756.19
2024-02-22T03:07:32.758Z,99758.69
2024-02-22T03:08:34.315Z,99746.78
2024-02-22T03:09:35.780Z,99746.56
2024-02-22T03:10:37.623Z,99744.59
2024-02-22T03:11:39.318Z,99738.22
2024-02-22T03:12:40.829Z,99740.16
2024-02-22T03:13:42.358Z,99736.41
2024-02-22T03:14:44.457Z,99749.19
2024-02-22T03:15:49.375Z,99738.38
2024-02-22T03:16:50.848Z,99732.94
2024-02-22T03:17:52.377Z,99741.03
2024-02-22T03:18:54.269Z,99736.59
2024-02-22T03:19:57.759Z,99740.16
2024-02-22T03:20:59.265Z,99743.72
2024-02-22T03:22:00.869Z,99735.41
2024-02-22T03:23:02.900Z,99725.41
2024-02-22T03:24:05.024Z,99719.91
2024-02-22T03:25:09.690Z,99725.41
2024-02-22T03:26:11.157Z,99720.13
2024-02-22T03:27:12.695Z,99722.63
2024-02-22T03:28:16.193Z,99715.50
2024-02-22T03:29:17.953Z,99716.38
2024-02-22T03:30:19.559Z,99719.09
2024-02-22T03:31:23.463Z,99716.25
2024-02-22T03:32:25.097Z,99718.34
2024-02-22T03:33:29.047Z,99706.31
2024-02-22T03:34:30.694Z,99708.19
2024-02-22T03:35:32.402Z,99715.56
2024-02-22T03:36:34.084Z,99713.75
2024-02-22T03:37:35.688Z,99720.09
2024-02-22T03:38:38.705Z,99701.72
2024-02-22T03:39:42.473Z,99702.53
2024-02-22T03:40:44.033Z,99710.84
2024-02-22T03:41:46.517Z,99699.19
2024-02-22T03:42:48.544Z,99705.50
2024-02-22T03:43:49.953Z,99703.03
2024-02-22T03:44:51.393Z,99694.97
2024-02-22T03:45:52.818Z,99694.06
2024-02-22T03:46:54.254Z,99690.34
2024-02-22T03:47:55.961Z,99679.53
2024-02-22T03:48:57.649Z,99689.16
2024-02-22T03:50:00.724Z,99683.03
2024-02-22T03:51:04.477Z,99693.75
2024-02-22T03:52:07.978Z,99684.84
2024-02-22T03:53:11.572Z,99684.19
2024-02-22T03:54:13.197Z,99685.03
2024-02-22T03:55:14.708Z,99678.56
2024-02-22T03:56:16.184Z,99673.19
2024-02-22T03:57:17.655Z,99668.81
2024-02-22T03:58:19.118Z,99668.81
2024-02-22T03:59:20.626Z,99668.72
2024-02-22T04:00:22.102Z,99665.19
2024-02-22T04:01:23.604Z,99663.50
2024-02-22T04:02:26.024Z,99663.38
2024-02-22T04:03:28.872Z,99670.47
2024-02-22T04:04:30.558Z,99657.78
2024-02-22T04:05:32.406Z,99658.94
2024-02-22T04:06:37.374Z,99661.91
2024-02-22T04:07:43.261Z,99655.56
2024-02-22T04:08:46.264Z,99654.41
2024-02-22T04:09:47.742Z,99646.50
2024-02-22T04:10:49.360Z,99657.38
2024-02-22T04:11:51.141Z,99655.66
2024-02-22T04:12:52.637Z,99660.91
2024-02-22T04:13:54.403Z,99651.84
2024-02-22T04:14:55.836Z,99654.59
2024-02-22T04:15:58.024Z,99651.16
2024-02-22T04:17:00.221Z,99650.00
2024-02-22T04:18:01.788Z,99655.44
2024-02-22T04:19:03.446Z,99645.50
2024-02-22T04:20:05.601Z,99644.69
2024-02-22T04:21:07.129Z,99643.81
2024-02-22T04:22:08.723Z,99643.81
2024-02-22T04:23:10.361Z,99634.50
2024-02-22T04:24:11.872Z,99632.75
2024-02-22T04:25:13.676Z,99638.09
2024-02-22T04:26:15.294Z,99636.09
2024-02-22T04:27:16.745Z,99636.09
2024-02-22T04:28:19.887Z,99625.19
2024-02-22T04:29:21.749Z,99629.00
2024-02-22T04:30:23.289Z,99621.88
2024-02-22T04:31:24.819Z,99630.94
2024-02-22T04:32:26.434Z,99625.66
2024-02-22T04:33:27.965Z,99630.22
2024-02-22T04:34:29.540Z,99631.06
2024-02-22T04:35:31.208Z,99615.81
2024-02-22T04:36:32.666Z,99614.78
2024-02-22T04:37:34.182Z,99615.84
2024-02-22T04:38:35.721Z,99619.44
2024-02-22T04:39:37.236Z,99615.00
2024-02-22T04:40:39.046Z,99619.53
2024-02-22T04:41:41.722Z,99614.94
2024-02-22T04:42:43.245Z,99607.63
2024-02-22T04:43:44.715Z,99613.91
2024-02-22T04:44:46.318Z,99606.84
2024-02-22T04:45:47.769Z,99609.44
2024-02-22T04:46:49.282Z,99620.31
2024-02-22T04:47:51.614Z,99612.16
2024-02-22T04:48:53.130Z,99609.44
2024-02-22T04:49:54.648Z,99604.00
2024-02-22T04:50:56.202Z,99601.41
2024-02-22T04:51:57.653Z,99600.53
2024-02-22T04:53:00.820Z,99606.84
2024-02-22T04:54:03.249Z,99595.38
2024-02-22T04:55:05.272Z,99594.31
2024-02-22T04:56:07.254Z,99600.75
2024-02-22T04:57:08.722Z,99591.63
2024-02-22T04:58:10.208Z,99593.50
2024-02-22T04:59:11.791Z,99593.56
2024-02-22T05:00:13.907Z,99576.72
2024-02-22T05:01:15.496Z,99587.19
2024-02-22T05:02:17.017Z,99593.72
2024-02-22T05:03:18.559Z,99588.91
2024-02-22T05:04:20.395Z,99587.84
2024-02-22T05:05:22.210Z,99584.31
2024-02-22T05:06:23.994Z,99591.63
2024-02-22T05:07:25.444Z,99587.84
2024-02-22T05:08:30.034Z,99577.09
2024-02-22T05:09:32.118Z,99583.53
2024-02-22T05:10:35.326Z,99580.84
2024-02-22T05:11:37.175Z,99573.06
2024-02-22T05:12:38.720Z,99572.06
2024-02-22T05:13:42.356Z,99579.28
2024-02-22T05:14:46.904Z,99576.53
2024-02-22T05:15:48.930Z,99580.97
2024-02-22T05:16:50.345Z,99573.84
2024-02-22T05:17:51.928Z,99567.63
2024-02-22T05:18:53.653Z,99556.28
2024-02-22T05:19:55.254Z,99565.25
2024-02-22T05:20:56.761Z,99567.19
2024-02-22T05:21:58.195Z,99554.72
2024-02-22T05:22:59.773Z,99556.53
2024-02-22T05:24:01.596Z,99560.94
2024-02-22T05:25:04.392Z,99564.69
2024-02-22T05:26:05.930Z,99555.56
2024-02-22T05:27:11.508Z,99554.75
2024-02-22T05:28:12.953Z,99557.56
2024-02-22T05:29:14.497Z,99558.69
2024-02-22T05:30:16.036Z,99548.88
2024-02-22T05:31:28.776Z,99548.97
2024-02-22T05:32:30.508Z,99549.91
2024-02-22T05:33:32.094Z,99546.47
2024-02-22T05:34:33.764Z,99551.00
2024-02-22T05:35:35.426Z,99545.72
2024-02-22T05:36:36.854Z,99535.75
2024-02-22T05:37:38.434Z,99542.88
2024-02-22T05:38:41.482Z,99541.03
2024-02-22T05:39:42.986Z,99537.47
2024-02-22T05:40:44.572Z,99535.78
2024-02-22T05:41:46.912Z,99528.75
2024-02-22T05:42:49.748Z,99532.44
2024-02-22T05:43:51.213Z,99534.28
2024-02-22T05:44:52.700Z,99536.84
2024-02-22T05:45:54.160Z,99528.75
2024-02-22T05:46:55.669Z,99529.72
2024-02-22T05:47:57.176Z,99517.81
2024-02-22T05:48:58.845Z,99524.13
2024-02-22T05:50:00.568Z,99521.66
2024-02-22T05:51:02.251Z,99525.13
2024-02-22T05:52:03.869Z,99516.41
2024-02-22T05:53:05.424Z,99512.63
2024-02-22T05:54:06.892Z,99511.88
2024-02-22T05:55:08.820Z,99512.97
2024-02-22T05:56:10.342Z,99513.81
2024-02-22T05:57:13.476Z,99522.97
2024-02-22T05:58:17.733Z,99504.91
2024-02-22T05:59:19.239Z,99514.72
2024-02-22T06:00:20.777Z,99516.63
2024-02-22T06:01:22.303Z,99508.63
2024-02-22T06:02:23.958Z,99517.84
2024-02-22T06:03:25.551Z,99513.44
2024-02-22T06:04:27.093Z,99509.78
2024-02-22T06:05:29.434Z,99498.75
2024-02-22T06:06:31.028Z,99495.94
2024-02-22T06:07:32.583Z,99504.06
2024-02-22T06:08:35.201Z,99503.19
2024-02-22T06:09:36.735Z,99493.41
2024-02-22T06:10:38.348Z,99503.31
2024-02-22T06:11:41.087Z,99501.59
2024-02-22T06:12:44.242Z,99503.38
2024-02-22T06:13:46.761Z,99502.53
2024-02-22T06:14:48.225Z,99495.38
2024-02-22T06:15:49.701Z,99494.47
2024-02-22T06:16:51.192Z,99495.38
2024-02-22T06:17:52.750Z,99489.84
2024-02-22T06:18:55.209Z,99493.47
2024-02-22T06:19:56.779Z,99498.19
2024-02-22T06:20:58.366Z,99492.75
2024-02-22T06:22:00.073Z,99493.59
2024-02-22T06:23:01.567Z,99483.53
2024-02-22T06:24:03.513Z,99486.38
2024-02-22T06:25:05.321Z,99482.72
2024-02-22T06:26:06.897Z,99480.78
2024-02-22T06:27:08.494Z,99470.09
2024-02-22T06:28:11.032Z,99481.75
2024-02-22T06:29:12.597Z,99483.50
2024-02-22T06:30:15.690Z,99472.63
2024-02-22T06:31:17.478Z,99475.25
2024-02-22T06:32:19.092Z,99476.06
2024-02-22T06:33:20.716Z,99473.44
2024-02-22T06:34:22.362Z,99468.09
2024-02-22T06:35:23.893Z,99478.78
2024-02-22T06:36:25.374Z,99466.28
2024-02-22T06:37:27.694Z,99470.81
2024-02-22T06:38:29.410Z,99460.84
2024-02-22T06:39:30.890Z,99463.50
2024-02-22T06:40:32.535Z,99469.81
2024-02-22T06:41:34.053Z,99463.50
2024-02-22T06:42:35.750Z,99462.47
2024-02-22T06:43:38.438Z,99460.53
2024-02-22T06:44:40.033Z,99467.84
2024-02-22T06:45:41.950Z,99462.31
2024-02-22T06:46:44.520Z,99455.97
2024-02-22T06:47:46.049Z,99453.31
2024-02-22T06:48:49.446Z,99453.13
2024-02-22T06:49:50.993Z,99448.75
2024-02-22T06:50:52.502Z,99443.25
2024-02-22T06:51:54.320Z,99440.59
2024-02-22T06:52:55.822Z,99447.75
2024-02-22T06:53:57.858Z,99450.47
2024-02-22T06:54:59.317Z,99454.28
2024-02-22T06:56:00.817Z,99451.47
2024-02-22T06:57:04.255Z,99443.41
2024-02-22T06:58:05.812Z,99440.69
2024-02-22T06:59:07.794Z,99437.03
2024-02-22T07:00:11.510Z,99442.47
2024-02-22T07:01:13.013Z,99446.13
2024-02-22T07:02:19.689Z,99436.09
2024-02-22T07:03:21.209Z,99438.91
2024-02-22T07:04:23.004Z,99440.69
2024-02-22T07:05:24.552Z,99433.38
2024-02-22T07:06:29.212Z,99427.16
2024-02-22T07:07:30.706Z,99443.31
2024-02-22T07:08:32.253Z,99436.97
2024-02-22T07:09:33.739Z,99430.53
2024-02-22T07:10:35.316Z,99430.53
2024-02-22T07:11:37.176Z,99426.09
2024-02-22T07:12:39.618Z,99424.41
2024-02-22T07:13:41.109Z,99422.63
2024-02-22T07:14:42.625Z,99427.19
2024-02-22T07:15:44.062Z,99421.06
2024-02-22T07:16:47.337Z,99423.63
2024-02-22T07:17:49.240Z,99421.88
2024-02-22T07:18:50.812Z,99423.69
2024-02-22T07:19:52.384Z,99426.47
2024-02-22T07:20:54.215Z,99419.16
2024-02-22T07:21:55.980Z,99412.84
2024-02-22T07:22:57.501Z,99417.31
2024-02-22T07:23:59.018Z,99418.28
2024-02-22T07:25:00.554Z,99420.13
2024-02-22T07:26:02.285Z,99415.75
2024-02-22T07:27:04.095Z,99407.63
2024-02-22T07:28:06.684Z,99412.16
2024-02-22T07:29:11.698Z,99412.06
2024-02-22T07:30:15.078Z,99407.38
2024-02-22T07:31:16.756Z,99402.69
2024-02-22T07:32:18.358Z,99403.41
2024-02-22T07:35:52.267Z,99402.78
2024-02-22T07:36:53.779Z,99399.13
2024-02-22T07:37:55.421Z,99404.56
2024-02-22T07:38:58.433Z,99405.47
2024-02-22T07:40:00.370Z,99405.47
2024-02-22T07:41:06.723Z,99402.59
2024-02-22T07:42:08.229Z,99397.16
2024-02-22T07:43:10.964Z,99393.59
2024-02-22T07:44:13.162Z,99397.06
2024-02-22T07:45:15.261Z,99386.31
2024-02-22T07:46:17.776Z,99390.72
2024-02-22T07:47:19.382Z,99386.41
2024-02-22T07:48:21.060Z,99390.94
2024-02-22T07:49:22.775Z,99387.28
2024-02-22T07:50:24.921Z,99386.41
2024-02-22T07:51:26.597Z,99387.97
2024-02-22T07:52:28.177Z,99379.72
2024-02-22T07:53:34.668Z,99384.41
2024-02-22T07:54:38.231Z,99384.38
2024-02-22T07:55:40.088Z,99380.63
2024-02-22T07:56:41.757Z,99381.59
2024-02-22T07:57:43.194Z,99382.72
2024-02-22T07:58:50.516Z,99378.31
2024-02-22T07:59:56.988Z,99380.09
2024-02-22T08:01:00.231Z,99385.41
2024-02-22T08:02:01.959Z,99379.06
2024-02-22T08:03:03.661Z,99376.22
2024-02-22T08:04:05.428Z,99375.22
2024-02-22T08:05:07.623Z,99367.22
2024-02-22T08:06:10.492Z,99374.50
2024-02-22T08:07:12.064Z,99369.00
2024-02-22T08:08:16.014Z,99369.00
2024-02-22T08:09:18.212Z,99366.25
2024-02-22T08:10:19.746Z,99369.78
2024-02-22T08:11:22.004Z,99371.47
2024-02-22T08:12:23.945Z,99364.47
2024-02-22T08:13:25.414Z,99367.09
2024-02-22T08:14:26.924Z,99368.78
2024-02-22T08:15:28.415Z,99373.38
2024-02-22T08:16:30.228Z,99356.19
2024-02-22T08:17:33.194Z,99362.41
2024-02-22T08:18:39.793Z,99359.81
2024-02-22T08:19:41.345Z,99364.25
2024-02-22T08:20:43.039Z,99360.84
2024-02-22T08:21:44.649Z,99362.53
2024-02-22T08:22:46.547Z,99359.00
2024-02-22T08:23:52.318Z,99359.69
2024-02-22T08:24:54.984Z,99356.09
2024-02-22T08:25:57.256Z,99355.06
2024-02-22T08:26:58.750Z,99351.53
2024-02-22T08:28:06.845Z,99356.97
2024-02-22T08:29:09.535Z,99348.72
2024-02-22T08:30:11.650Z,99351.66
2024-02-22T08:31:16.201Z,99354.28
2024-02-22T08:32:18.342Z,99354.28
2024-02-22T08:33:25.714Z,99339.72
2024-02-22T08:34:27.311Z,99352.44
2024-02-22T08:35:29.150Z,99346.22
2024-02-22T08:36:30.591Z,99356.06
2024-02-22T08:37:32.095Z,99347.84
2024-02-22T08:38:33.595Z,99344.22
2024-02-22T08:39:35.121Z,99354.06
2024-02-22T08:40:40.182Z,99345.09
2024-02-22T08:41:42.223Z,99340.44
2024-02-22T08:42:43.740Z,99351.19
2024-02-22T08:43:45.270Z,99336.81
2024-02-22T08:44:46.866Z,99344.84
2024-02-22T08:45:49.669Z,99339.28
2024-02-22T08:46:51.650Z,99329.47
2024-02-22T08:47:53.372Z,99333.97
2024-02-22T08:48:55.405Z,99338.63
2024-02-22T08:49:58.373Z,99338.66
2024-02-22T08:50:59.961Z,99333.16
2024-02-22T08:52:05.239Z,99333.09
2024-02-22T08:53:07.026Z,99325.88
2024-02-22T08:54:08.587Z,99332.19
2024-02-22T08:55:13.589Z,99328.59
2024-02-22T08:56:15.691Z,99329.47
2024-02-22T08:57:17.412Z,99327.81
2024-02-22T08:58:18.881Z,99328.69
2024-02-22T08:59:20.360Z,99327.91
2024-02-22T09:00:21.988Z,99316.94
2024-02-22T09:01:25.116Z,99320.81
2024-02-22T09:02:26.684Z,99326.13
2024-02-22T09:03:28.223Z,99320.63
2024-02-22T09:04:29.769Z,99320.50
2024-02-22T09:05:31.412Z,99323.34
2024-02-22T09:06:33.142Z,99319.72
2024-02-22T09:07:35.785Z,99311.63
2024-02-22T09:08:40.304Z,99317.84
2024-02-22T09:09:41.794Z,99316.94
2024-02-22T09:10:43.339Z,99316.94
2024-02-22T09:11:44.947Z,99315.97
2024-02-22T09:12:46.545Z,99309.53
2024-02-22T09:13:48.112Z,99307.63
2024-02-22T09:14:49.654Z,99309.31
2024-02-22T09:15:51.178Z,99312.88
2024-02-22T09:16:52.699Z,99304.84
2024-02-22T09:17:54.234Z,99309.19
2024-02-22T09:18:55.769Z,99298.44
2024-02-22T09:19:57.337Z,99300.09
2024-02-22T09:20:58.813Z,99302.72
2024-02-22T09:22:01.668Z,99292.81
2024-02-22T09:23:03.309Z,99292.69
2024-02-22T09:24:05.516Z,99308.16
2024-02-22T09:25:07.766Z,99292.03
2024-02-22T09:26:09.619Z,99294.47
2024-02-22T09:27:13.385Z,99293.50
2024-02-22T09:28:16.408Z,99279.94
2024-02-22T09:29:17.980Z,99289.03
2024-02-22T09:30:19.577Z,99301.66
2024-02-22T09:31:21.123Z,99289.81
2024-02-22T09:32:22.742Z,99285.25
2024-02-22T09:33:24.322Z,99291.75
2024-02-22T09:34:26.234Z,99294.25
2024-02-22T09:35:27.971Z,99288.69
2024-02-22T09:36:29.537Z,99289.59
2024-02-22T09:37:32.225Z,99272.41
2024-02-22T09:38:35.833Z,99281.97
2024-02-22T09:39:39.195Z,99279.25
2024-02-22T09:40:40.736Z,99279.38
2024-02-22T09:41:43.725Z,99278.06
2024-02-22T09:42:45.320Z,99284.28
2024-02-22T09:43:46.856Z,99273.28
2024-02-22T09:44:48.395Z,99282.38
2024-02-22T09:45:49.943Z,99282.44
2024-02-22T09:46:54.810Z,99275.28
2024-02-22T09:47:56.539Z,99267.97
2024-02-22T09:48:58.247Z,99268.09
2024-02-22T09:50:02.541Z,99275.19
2024-02-22T09:51:06.829Z,99279.94
2024-02-22T09:52:09.564Z,99274.41
2024-02-22T09:53:12.166Z,99264.47
2024-02-22T09:54:14.623Z,99273.16
2024-02-22T09:55:18.315Z,99269.50
2024-02-22T09:56:19.983Z,99274.00
2024-02-22T09:57:21.513Z,99270.41
2024-02-22T09:58:24.642Z,99268.63
2024-02-22T09:59:26.250Z,99266.91
2024-02-22T10:00:27.780Z,99268.69
2024-02-22T10:01:29.951Z,99264.31
2024-02-22T10:02:31.775Z,99267.72
2024-02-22T10:03:36.289Z,99267.72
2024-02-22T10:04:37.908Z,99269.38
2024-02-22T10:05:40.306Z,99262.06
2024-02-22T10:06:41.971Z,99271.94
2024-02-22T10:07:44.390Z,99266.38
2024-02-22T10:08:48.159Z,99264.66
2024-02-22T10:09:49.763Z,99261.56
2024-02-22T10:10:52.969Z,99266.81
2024-02-22T10:11:55.014Z,99263.66
2024-02-22T10:12:58.114Z,99257.84
2024-02-22T10:14:03.048Z,99258.38
2024-02-22T10:15:09.121Z,99256.47
2024-02-22T10:16:18.412Z,99261.66
2024-02-22T10:17:30.958Z,99252.53
2024-02-22T10:18:33.994Z,99249.38
2024-02-22T10:19:35.749Z,99258.03
2024-02-22T10:20:37.782Z,99246.16
2024-02-22T10:21:40.096Z,99249.00
2024-02-22T10:22:41.604Z,99245.28
2024-02-22T10:23:45.730Z,99239.69
2024-02-22T10:24:47.177Z,99247.53
2024-02-22T10:25:48.947Z,99244.47
2024-02-22T10:26:51.611Z,99245.00
2024-02-22T10:27:54.037Z,99243.03
2024-02-22T10:29:09.398Z,99247.34
2024-02-22T10:30:14.984Z,99225.03
2024-02-22T10:31:20.404Z,99228.56
2024-02-22T10:32:22.348Z,99223.19
2024-02-22T10:33:24.642Z,99223.94
2024-02-22T10:34:27.102Z,99223.56
2024-02-22T10:35:29.935Z,99221.44
2024-02-22T10:36:31.679Z,99223.78
2024-02-22T10:37:34.618Z,99215.22
2024-02-22T10:38:37.719Z,99216.59
2024-02-22T10:39:39.727Z,99212.66
2024-02-22T10:40:44.953Z,99206.94
2024-02-22T10:41:49.075Z,99206.94
2024-02-22T10:42:54.215Z,99198.41
2024-02-22T10:43:58.572Z,99198.19
2024-02-22T10:45:00.162Z,99195.34
2024-02-22T10:46:04.165Z,99183.44
2024-02-22T10:47:06.381Z,99191.28
2024-02-22T10:48:10.990Z,99190.69
2024-02-22T10:49:14.278Z,99190.56
2024-02-22T10:50:23.892Z,99183.19
2024-02-22T10:51:29.605Z,99172.56
2024-02-22T10:52:33.562Z,99177.72
2024-02-22T10:53:38.463Z,99174.13
2024-02-22T10:54:42.119Z,99174.06
2024-02-22T10:55:51.382Z,99170.72
2024-02-22T10:56:53.794Z,99152.97
2024-02-22T10:57:57.457Z,99166.09
2024-02-22T10:59:02.887Z,99167.78
2024-02-22T11:00:06.418Z,99161.63
2024-02-22T11:01:12.120Z,99147.94
2024-02-22T11:02:14.324Z,99154.69
2024-02-22T11:03:17.644Z,99158.44
2024-02-22T11:04:20.679Z,99142.50
2024-02-22T11:05:23.323Z,99150.22
2024-02-22T11:06:24.973Z,99151.03
2024-02-22T11:07:28.901Z,99140.38
2024-02-22T11:08:31.032Z,99153.88
2024-02-22T11:09:40.204Z,99147.63
2024-02-22T11:10:44.705Z,99152.34
2024-02-22T11:11:52.847Z,99146.91
2024-02-22T11:12:54.522Z,99147.69
2024-02-22T11:13:57.891Z,99139.56
2024-02-22T11:15:07.744Z,99151.88
2024-02-22T11:16:16.843Z,99144.94
2024-02-22T11:17:19.645Z,99140.13
2024-02-22T11:18:25.823Z,99141.75
2024-02-22T11:19:27.971Z,99133.56
2024-02-22T11:20:36.647Z,99130.56
2024-02-22T11:21:39.181Z,99128.94
2024-02-22T11:22:40.796Z,99128.06
2024-02-22T11:23:42.861Z,99123.34
2024-02-22T11:24:44.668Z,99126.06
2024-02-22T11:25:47.237Z,99120.09
2024-02-22T11:26:49.858Z,99126.44
2024-02-22T11:27:59.414Z,99111.69
2024-02-22T11:29:01.775Z,99110.72
2024-02-22T11:30:16.332Z,99115.81
2024-02-22T11:31:17.805Z,99106.47
2024-02-22T11:32:22.269Z,99105.38
2024-02-22T11:33:24.421Z,99110.09
2024-02-22T11:34:27.332Z,99109.94
2024-02-22T11:35:29.216Z,99110.66
2024-02-22T11:36:31.398Z,99109.94
2024-02-22T11:37:32.893Z,99099.75
2024-02-22T11:38:34.539Z,99099.44
2024-02-22T11:39:36.063Z,99109.56
2024-02-22T11:40:37.990Z,99092.31
2024-02-22T11:41:39.659Z,99091.34
2024-02-22T11:42:41.102Z,99075.75
2024-02-22T11:43:44.437Z,99086.63
2024-02-22T11:44:46.736Z,99076.72
2024-02-22T11:45:48.208Z,99091.34
2024-02-22T11:46:49.941Z,99079.41
2024-02-22T11:47:52.798Z,99075.16
2024-02-22T11:48:54.437Z,99077.63
2024-02-22T11:49:56.013Z,99076.69
2024-02-22T11:50:58.211Z,99070.28
2024-02-22T11:51:59.781Z,99084.44
2024-02-22T11:53:03.802Z,99069.09
2024-02-22T11:54:05.542Z,99071.00
2024-02-22T11:55:11.196Z,99070.13
2024-02-22T11:56:12.662Z,99073.53
2024-02-22T11:57:15.160Z,99071.00
2024-02-22T11:58:17.415Z,99067.56
2024-02-22T11:59:19.307Z,99066.59
2024-02-22T12:00:20.892Z,99067.41
2024-02-22T12:01:23.085Z,99071.34
2024-02-22T12:02:24.914Z,99067.72
2024-02-22T12:03:26.675Z,99055.97
2024-02-22T12:04:33.829Z,99057.91
2024-02-22T12:05:35.994Z,99061.28
2024-02-22T12:06:38.934Z,99063.72
2024-02-22T12:07:41.674Z,99058.50
2024-02-22T12:08:43.770Z,99063.72
2024-02-22T12:09:45.886Z,99048.69
2024-02-22T12:10:49.171Z,99053.41
2024-02-22T12:11:51.730Z,99054.88
2024-02-22T12:12:53.626Z,99045.75